createdAt,value
2023-01-26T00:00:18.816Z,2.02
2023-01-26T00:05:43.219Z,2.02
2023-01-26T00:10:51.721Z,2.01
2023-01-26T00:15:56.108Z,1.98
2023-01-26T00:21:02.111Z,1.97
2023-01-26T00:26:07.768Z,1.97
2023-01-26T00:31:19.567Z,1.98
2023-01-26T00:36:24.251Z,1.98
2023-01-26T00:41:46.927Z,1.97
2023-01-26T00:46:54.505Z,1.95
2023-01-26T00:51:58.438Z,1.96
2023-01-26T00:57:02.912Z,1.96
2023-01-26T01:02:08.005Z,1.97
2023-01-26T01:07:12.491Z,1.96
2023-01-26T01:12:16.473Z,1.97
2023-01-26T01:17:20.574Z,1.98
2023-01-26T01:22:25.105Z,1.97
2023-01-26T01:27:32.022Z,1.97
2023-01-26T01:32:36.716Z,1.99
2023-01-26T01:37:41.350Z,1.99
2023-01-26T01:42:49.306Z,1.98
2023-01-26T01:47:58.154Z,1.97
2023-01-26T01:53:02.392Z,1.94
2023-01-26T01:58:11.096Z,1.92
2023-01-26T02:03:16.034Z,1.90
2023-01-26T02:08:23.321Z,1.89
2023-01-26T02:13:28.016Z,1.87
2023-01-26T02:18:31.908Z,1.86
2023-01-26T02:23:35.861Z,1.85
2023-01-26T02:28:44.839Z,1.84
2023-01-26T02:33:48.950Z,1.83
2023-01-26T02:38:56.218Z,1.82
2023-01-26T02:44:00.088Z,1.80
2023-01-26T02:49:23.066Z,1.80
2023-01-26T02:54:45.490Z,1.81
2023-01-26T02:59:50.568Z,1.81
2023-01-26T03:04:54.368Z,1.81
2023-01-26T03:10:02.465Z,1.80
2023-01-26T03:15:28.566Z,1.80
2023-01-26T03:20:51.433Z,1.79
2023-01-26T03:26:16.349Z,1.77
2023-01-26T03:31:21.207Z,1.75
2023-01-26T03:36:25.418Z,1.74
2023-01-26T03:41:49.981Z,1.73
2023-01-26T03:47:14.010Z,1.71
2023-01-26T03:52:37.588Z,1.71
2023-01-26T03:57:42.681Z,1.69
2023-01-26T04:03:05.174Z,1.69
2023-01-26T04:08:31.573Z,1.66
2023-01-26T04:13:56.817Z,1.62
2023-01-26T04:19:24.945Z,1.59
2023-01-26T04:24:29.102Z,1.58
2023-01-26T04:29:36.047Z,1.57
2023-01-26T04:34:41.379Z,1.57
2023-01-26T04:39:54.035Z,1.58
2023-01-26T04:44:59.305Z,1.58
2023-01-26T04:50:08.740Z,1.56
2023-01-26T04:55:13.821Z,1.54
2023-01-26T05:00:20.787Z,1.54
2023-01-26T05:05:25.843Z,1.53
2023-01-26T05:10:30.658Z,1.54
2023-01-26T05:15:54.569Z,1.53
2023-01-26T05:21:17.146Z,1.51
2023-01-26T05:26:27.659Z,1.48
2023-01-26T05:31:35.565Z,1.47
2023-01-26T05:36:41.240Z,1.46
2023-01-26T05:41:46.484Z,1.44
2023-01-26T05:47:11.649Z,1.41
2023-01-26T05:52:19.304Z,1.41
2023-01-26T05:57:23.760Z,1.39
2023-01-26T06:02:36.124Z,1.39
2023-01-26T06:07:41.059Z,1.37
2023-01-26T06:13:01.362Z,1.36
2023-01-26T06:18:18.599Z,1.34
2023-01-26T06:23:32.427Z,1.33
2023-01-26T06:28:38.845Z,1.33
2023-01-26T06:33:43.181Z,1.32
2023-01-26T06:38:50.769Z,1.31
2023-01-26T06:43:55.565Z,1.29
2023-01-26T06:49:03.137Z,1.29
2023-01-26T06:54:10.755Z,1.30
2023-01-26T06:59:38.100Z,1.32
2023-01-26T07:05:11.020Z,1.35
2023-01-26T07:10:15.733Z,1.39
2023-01-26T07:15:19.691Z,1.40
2023-01-26T07:20:24.088Z,1.41
2023-01-26T07:25:28.467Z,1.42
2023-01-26T07:30:33.508Z,1.45
2023-01-26T07:35:37.278Z,1.47
2023-01-26T07:40:41.750Z,1.51
2023-01-26T07:45:54.919Z,1.54
2023-01-26T07:51:00.973Z,1.58
2023-01-26T07:56:28.316Z,1.62
2023-01-26T08:01:32.155Z,1.66
2023-01-26T08:06:36.496Z,1.72
2023-01-26T08:11:48.709Z,1.77
2023-01-26T08:16:53.270Z,1.79
2023-01-26T08:21:58.367Z,1.82
2023-01-26T08:27:03.099Z,1.89
2023-01-26T08:32:09.517Z,1.96
2023-01-26T08:37:14.319Z,2.01
2023-01-26T08:42:18.615Z,2.01
2023-01-26T08:47:22.503Z,2.02
2023-01-26T08:52:29.515Z,2.10
2023-01-26T08:57:34.218Z,2.24
2023-01-26T09:02:38.714Z,2.32
2023-01-26T09:07:42.999Z,2.34
2023-01-26T09:12:47.740Z,2.42
2023-01-26T09:17:52.420Z,2.44
2023-01-26T09:22:56.652Z,2.44
2023-01-26T09:28:04.023Z,2.53
2023-01-26T09:33:09.836Z,2.67
2023-01-26T09:38:13.855Z,2.79
2023-01-26T09:43:29.632Z,2.92
2023-01-26T09:48:43.033Z,2.99
2023-01-26T09:54:21.741Z,2.99
2023-01-26T09:59:35.797Z,3.02
2023-01-26T10:04:42.867Z,3.10
2023-01-26T10:09:49.703Z,3.12
2023-01-26T10:14:59.837Z,3.05
2023-01-26T10:20:18.978Z,3.03
2023-01-26T10:25:49.219Z,3.06
2023-01-26T10:30:55.854Z,3.08
2023-01-26T10:36:04.400Z,3.08
2023-01-26T10:41:23.671Z,3.05
2023-01-26T10:46:30.734Z,3.00
2023-01-26T10:51:36.498Z,3.02
2023-01-26T10:56:57.207Z,3.08
2023-01-26T11:02:11.721Z,3.09
2023-01-26T11:07:32.848Z,3.03
2023-01-26T11:12:36.657Z,2.93
2023-01-26T11:17:47.593Z,2.90
2023-01-26T11:23:00.350Z,2.86
2023-01-26T11:28:22.813Z,2.83
2023-01-26T11:33:38.878Z,2.79
2023-01-26T11:38:46.310Z,2.73
2023-01-26T11:44:08.946Z,2.68
2023-01-26T11:49:41.754Z,2.62
2023-01-26T11:55:06.003Z,2.56
2023-01-26T12:00:30.658Z,2.57
2023-01-26T12:05:46.684Z,2.56
2023-01-26T12:11:23.602Z,2.61
2023-01-26T12:16:56.418Z,2.64
2023-01-26T12:22:07.181Z,2.70
2023-01-26T12:27:44.498Z,2.72
2023-01-26T12:32:48.329Z,2.73
2023-01-26T12:38:17.936Z,2.72
2023-01-26T12:43:38.521Z,2.73
2023-01-26T12:48:47.937Z,2.74
2023-01-26T12:54:05.099Z,2.73
2023-01-26T12:59:46.386Z,2.72
2023-01-26T13:04:51.863Z,2.66
2023-01-26T13:10:15.224Z,2.60
2023-01-26T13:15:22.630Z,2.58
2023-01-26T13:20:50.076Z,2.54
2023-01-26T13:26:46.502Z,2.48
2023-01-26T13:32:01.134Z,2.35
2023-01-26T13:37:19.800Z,2.29
2023-01-26T13:42:28.279Z,2.25
2023-01-26T13:47:38.649Z,2.20
2023-01-26T13:52:43.439Z,2.13
2023-01-26T13:57:50.019Z,2.07
2023-01-26T14:02:55.254Z,2.05
2023-01-26T14:08:00.367Z,2.01
2023-01-26T14:13:11.092Z,1.96
2023-01-26T14:18:21.942Z,1.91
2023-01-26T14:23:30.253Z,1.87
2023-01-26T14:35:23.727Z,1.78
2023-01-26T14:40:29.452Z,1.75
2023-01-26T14:45:34.738Z,1.71
2023-01-26T14:50:39.279Z,1.68
2023-01-26T14:55:44.845Z,1.64
2023-01-26T15:00:50.659Z,1.61
2023-01-26T15:06:29.070Z,1.58
2023-01-26T15:11:58.608Z,1.53
2023-01-26T15:17:03.454Z,1.51
2023-01-26T15:22:25.917Z,1.48
2023-01-26T15:27:37.193Z,1.47
2023-01-26T15:32:41.907Z,1.45
2023-01-26T15:37:46.015Z,1.42
2023-01-26T15:42:50.041Z,1.41
2023-01-26T15:47:55.907Z,1.41
2023-01-26T15:53:00.457Z,1.40
2023-01-26T15:58:04.968Z,1.38
2023-01-26T16:03:15.277Z,1.37
2023-01-26T16:08:21.019Z,1.37
2023-01-26T16:13:24.759Z,1.36
2023-01-26T16:18:28.608Z,1.36
2023-01-26T16:23:35.109Z,1.37
2023-01-26T16:28:39.011Z,1.36
2023-01-26T16:33:43.937Z,1.34
2023-01-26T16:38:48.956Z,1.32
2023-01-26T16:43:56.872Z,1.33
2023-01-26T16:49:01.231Z,1.32
2023-01-26T16:54:06.107Z,1.32
2023-01-26T16:59:10.209Z,1.31
2023-01-26T17:04:14.261Z,1.30
2023-01-26T17:09:18.296Z,1.30
2023-01-26T17:14:22.543Z,1.29
2023-01-26T17:19:27.165Z,1.28
2023-01-26T17:24:31.020Z,1.27
2023-01-26T17:29:34.880Z,1.24
2023-01-26T17:34:38.975Z,1.24
2023-01-26T17:39:43.093Z,1.22
2023-01-26T17:44:47.687Z,1.21
2023-01-26T17:49:52.698Z,1.21
2023-01-26T17:54:56.962Z,1.21
2023-01-26T18:00:02.232Z,1.20
2023-01-26T18:05:14.165Z,1.20
2023-01-26T18:10:18.785Z,1.20
2023-01-26T18:15:26.155Z,1.20
2023-01-26T18:20:33.150Z,1.20
2023-01-26T18:25:38.718Z,1.19
2023-01-26T18:30:43.401Z,1.20
2023-01-26T18:35:47.857Z,1.21
2023-01-26T18:40:58.124Z,1.21
2023-01-26T18:46:05.614Z,1.22
2023-01-26T18:51:16.354Z,1.23
2023-01-26T18:56:21.601Z,1.25
2023-01-26T19:01:29.517Z,1.26
2023-01-26T19:06:37.713Z,1.26
2023-01-26T19:11:44.439Z,1.25
2023-01-26T19:16:56.106Z,1.24
2023-01-26T19:22:03.795Z,1.20
2023-01-26T19:27:08.905Z,1.20
2023-01-26T19:32:20.430Z,1.20
2023-01-26T19:37:27.133Z,1.20
2023-01-26T19:42:33.023Z,1.20
2023-01-26T19:53:11.090Z,1.24
2023-01-26T19:58:31.410Z,1.25
2023-01-26T20:03:39.548Z,1.26
2023-01-26T20:08:44.885Z,1.26
2023-01-26T20:13:59.419Z,1.27
2023-01-26T20:19:05.742Z,1.28
2023-01-26T20:24:17.853Z,1.28
2023-01-26T20:29:23.158Z,1.26
2023-01-26T20:34:30.338Z,1.21
2023-01-26T20:39:38.094Z,1.16
2023-01-26T20:44:44.562Z,1.12
2023-01-26T20:49:50.600Z,1.10
2023-01-26T20:54:58.051Z,1.10
2023-01-26T21:00:05.184Z,1.09
2023-01-26T21:05:13.318Z,1.08
2023-01-26T21:10:19.714Z,1.07
2023-01-26T21:15:25.097Z,1.03
2023-01-26T21:20:29.665Z,1.00
2023-01-26T21:25:34.053Z,0.95
2023-01-26T21:30:39.109Z,0.91
2023-01-26T21:35:43.311Z,0.88
2023-01-26T21:40:47.906Z,0.88
2023-01-26T21:45:59.767Z,0.88
2023-01-26T21:51:23.611Z,0.86
2023-01-26T21:56:29.961Z,0.86
2023-01-26T22:01:37.927Z,0.86
2023-01-26T22:06:41.899Z,0.85
2023-01-26T22:11:46.439Z,0.87
2023-01-26T22:16:50.298Z,0.88
2023-01-26T22:21:55.582Z,0.90
2023-01-26T22:26:59.863Z,0.92
2023-01-26T22:32:04.754Z,0.96
2023-01-26T22:37:08.758Z,0.98
2023-01-26T22:42:14.313Z,0.99
2023-01-26T22:47:17.988Z,1.01
2023-01-26T22:52:22.668Z,1.02
2023-01-26T22:57:27.056Z,1.03
2023-01-26T23:02:32.036Z,1.00
2023-01-26T23:07:38.969Z,0.99
2023-01-26T23:12:43.537Z,0.98
2023-01-26T23:17:52.024Z,0.97
2023-01-26T23:22:57.156Z,0.96
2023-01-26T23:28:03.620Z,0.94
2023-01-26T23:33:09.517Z,0.95
2023-01-26T23:38:16.749Z,0.93
2023-01-26T23:43:22.245Z,0.91
2023-01-26T23:48:28.220Z,0.91
2023-01-26T23:53:32.917Z,0.91
2023-01-26T23:58:37.881Z,0.90
